Time;durP1;ratioP1;P1;durP2;ratioP2;P2;SDS_P1;SDS_P2;PMS_P1;PMS_P2;Temp;Humidity;BMP_temperature;BMP_pressure;BME280_temperature;BME280_humidity;BME280_pressure;Samples;Min_cycle;Max_cycle;Signal;HPM_P1;HPM_P2
2023/05/01 00:01:52;;;;;;;13.50;12.70;;;13.20;99.90;;;;;;4938989;28;20854;-80
2023/05/01 00:04:22;;;;;;;14.30;13.60;;;13.10;99.90;;;;;;4935852;28;20484;-79
2023/05/01 00:06:50;;;;;;;14.87;13.93;;;13.10;99.90;;;;;;4934533;28;20868;-79
2023/05/01 00:09:19;;;;;;;14.43;13.53;;;13.10;99.90;;;;;;4935552;28;20494;-79
2023/05/01 00:11:48;;;;;;;13.43;12.73;;;13.10;99.90;;;;;;4937172;28;20498;-80
2023/05/01 00:14:16;;;;;;;13.73;13.03;;;13.00;99.90;;;;;;4936640;28;20466;-79
2023/05/01 00:16:45;;;;;;;13.50;12.80;;;13.00;99.90;;;;;;4938319;28;20462;-80
2023/05/01 00:19:17;;;;;;;14.20;13.20;;;13.00;1.00;;;;;;4938440;28;20514;-79
2023/05/01 00:21:46;;;;;;;13.40;12.60;;;12.90;1.00;;;;;;4938684;28;20509;-80
2023/05/01 00:24:15;;;;;;;13.43;12.63;;;12.90;1.00;;;;;;4937985;28;20491;-80
2023/05/01 00:26:43;;;;;;;14.27;13.47;;;12.90;1.00;;;;;;4939861;28;21072;-79
2023/05/01 00:29:14;;;;;;;13.67;12.90;;;12.90;1.00;;;;;;4936261;29;20499;-79
2023/05/01 00:31:42;;;;;;;13.40;12.57;;;12.90;1.00;;;;;;4935892;28;20470;-80
2023/05/01 00:34:11;;;;;;;12.73;12.13;;;12.80;1.00;;;;;;4937874;28;20506;-80
2023/05/01 00:36:39;;;;;;;13.00;12.30;;;12.80;1.00;;;;;;4938891;28;20538;-79
2023/05/01 00:39:07;;;;;;;12.30;11.80;;;12.70;1.00;;;;;;4937794;28;21006;-80
2023/05/01 00:41:36;;;;;;;13.37;12.67;;;12.80;1.00;;;;;;4931980;29;21053;-80
2023/05/01 00:44:05;;;;;;;13.70;12.90;;;12.70;1.00;;;;;;4937136;28;20498;-80
2023/05/01 00:47:01;;;;;;;14.70;13.90;;;12.70;1.00;;;;;;4937016;28;20471;-80
2023/05/01 00:49:29;;;;;;;13.37;12.67;;;12.70;1.00;;;;;;4937930;28;20481;-80
2023/05/01 00:51:57;;;;;;;14.13;13.33;;;12.80;1.00;;;;;;4938299;28;20475;-80
2023/05/01 00:54:26;;;;;;;14.43;13.63;;;12.80;1.00;;;;;;4934888;28;20489;-81
2023/05/01 00:56:55;;;;;;;14.03;13.23;;;12.80;1.00;;;;;;4937193;28;21007;-81
2023/05/01 00:59:23;;;;;;;13.77;12.93;;;12.80;1.00;;;;;;4938188;29;20487;-80
2023/05/01 01:01:52;;;;;;;13.87;13.07;;;12.80;1.00;;;;;;4939541;28;20470;-80
2023/05/01 01:04:24;;;;;;;15.47;14.67;;;12.80;1.00;;;;;;4942166;28;20493;-81
2023/05/01 01:07:04;;;;;;;14.80;13.90;;;12.80;1.00;;;;;;4942285;28;20467;-81
2023/05/01 01:09:42;;;;;;;14.80;13.70;;;12.80;1.00;;;;;;4940501;28;20570;-80
2023/05/01 01:12:20;;;;;;;14.37;13.57;;;12.80;1.00;;;;;;4943273;29;20459;-81
2023/05/01 01:14:55;;;;;;;14.77;13.80;;;12.80;1.00;;;;;;4936902;28;20522;-79
2023/05/01 01:17:31;;;;;;;14.63;13.63;;;12.80;1.00;;;;;;4936042;28;21019;-80
2023/05/01 01:20:19;;;;;;;13.60;12.83;;;12.90;1.00;;;;;;4936973;28;20555;-80
2023/05/01 01:22:54;;;;;;;13.10;12.50;;;13.00;1.00;;;;;;4939772;28;20460;-80
2023/05/01 01:25:54;;;;;;;12.67;12.07;;;13.10;1.00;;;;;;4941831;28;20487;-79
2023/05/01 01:28:55;;;;;;;13.17;12.47;;;13.00;1.00;;;;;;4924899;28;20599;-79
2023/05/01 01:31:32;;;;;;;13.73;13.03;;;13.00;1.00;;;;;;4938155;28;21026;-80
2023/05/01 01:34:09;;;;;;;13.70;12.90;;;13.10;1.00;;;;;;4937244;28;20554;-79
2023/05/01 01:36:46;;;;;;;14.57;13.87;;;13.10;1.00;;;;;;4933738;28;20467;-80
2023/05/01 01:39:26;;;;;;;15.07;14.20;;;13.10;1.00;;;;;;4938886;28;20487;-79
2023/05/01 01:41:56;;;;;;;14.43;13.63;;;13.10;1.00;;;;;;4935747;28;20466;-80
2023/05/01 01:44:33;;;;;;;13.80;13.10;;;13.10;1.00;;;;;;4936486;28;20495;-80
2023/05/01 01:47:06;;;;;;;13.50;12.83;;;13.10;1.00;;;;;;4935011;28;20475;-79
2023/05/01 01:49:40;;;;;;;13.03;12.43;;;13.10;99.90;;;;;;4936724;28;20491;-79
2023/05/01 01:52:13;;;;;;;14.33;13.63;;;13.10;1.00;;;;;;4938051;28;20462;-80
2023/05/01 01:54:46;;;;;;;13.43;12.73;;;13.10;1.00;;;;;;4936221;28;20462;-79
2023/05/01 01:57:17;;;;;;;13.80;13.10;;;13.10;1.00;;;;;;4936969;28;20978;-80
2023/05/01 01:59:46;;;;;;;15.57;14.57;;;13.10;1.00;;;;;;4937560;28;20479;-80
2023/05/01 02:02:17;;;;;;;15.17;14.27;;;13.10;1.00;;;;;;4934743;29;20878;-80
2023/05/01 02:04:47;;;;;;;14.27;13.60;;;13.10;1.00;;;;;;4935261;28;20512;-79
2023/05/01 02:07:19;;;;;;;15.00;14.30;;;13.10;1.00;;;;;;4932244;28;20479;-80
2023/05/01 02:09:49;;;;;;;15.93;15.00;;;13.00;1.00;;;;;;4935861;28;20494;-79
2023/05/01 02:12:19;;;;;;;16.00;15.10;;;13.00;1.00;;;;;;4936572;28;20465;-79
2023/05/01 02:14:50;;;;;;;15.13;14.17;;;12.90;1.00;;;;;;4934359;28;21025;-80
2023/05/01 02:17:20;;;;;;;15.87;14.90;;;12.90;1.00;;;;;;4935166;28;21002;-80
2023/05/01 02:19:51;;;;;;;15.00;14.30;;;12.90;1.00;;;;;;4938570;28;20475;-80
2023/05/01 02:22:21;;;;;;;14.80;14.00;;;12.90;1.00;;;;;;4934318;28;20456;-80
2023/05/01 02:24:50;;;;;;;15.00;14.13;;;12.90;1.00;;;;;;4936097;28;20492;-80
2023/05/01 02:27:22;;;;;;;14.57;13.87;;;12.80;1.00;;;;;;4935283;28;20987;-79
2023/05/01 02:29:52;;;;;;;14.00;13.30;;;12.90;1.00;;;;;;4933365;28;21002;-79
2023/05/01 02:32:21;;;;;;;14.90;14.00;;;12.80;1.00;;;;;;4935078;28;20837;-79
2023/05/01 02:34:51;;;;;;;14.57;13.77;;;12.80;1.00;;;;;;4935668;28;20465;-80
2023/05/01 02:37:19;;;;;;;14.20;13.50;;;12.80;1.00;;;;;;4933377;28;21184;-80
2023/05/01 02:39:47;;;;;;;14.37;13.53;;;12.80;1.00;;;;;;4936129;28;20483;-80
2023/05/01 02:42:17;;;;;;;14.77;13.97;;;12.70;1.00;;;;;;4938667;28;20467;-80
2023/05/01 02:44:50;;;;;;;14.77;13.97;;;12.70;1.00;;;;;;4940037;28;20455;-80
2023/05/01 02:47:22;;;;;;;14.93;14.20;;;12.70;1.00;;;;;;4940769;28;20463;-78
2023/05/01 02:49:54;;;;;;;13.77;13.13;;;12.70;1.00;;;;;;4940405;28;20486;-79
2023/05/01 02:52:22;;;;;;;14.77;14.07;;;12.60;1.00;;;;;;4943461;28;20459;-80
2023/05/01 02:54:51;;;;;;;15.63;14.67;;;12.60;1.00;;;;;;4938336;28;20546;-80
2023/05/01 02:57:19;;;;;;;15.77;14.90;;;12.60;1.00;;;;;;4938873;28;20471;-80
2023/05/01 02:59:48;;;;;;;15.63;14.83;;;12.60;1.00;;;;;;4938496;29;20482;-81
2023/05/01 03:02:16;;;;;;;15.10;14.27;;;12.60;1.00;;;;;;4941350;28;20455;-80
2023/05/01 03:04:44;;;;;;;15.57;14.70;;;12.60;1.00;;;;;;4941892;28;20999;-81
2023/05/01 03:07:14;;;;;;;15.50;14.67;;;12.60;1.00;;;;;;4941270;28;20474;-80
2023/05/01 03:09:42;;;;;;;16.20;15.37;;;12.60;1.00;;;;;;4941202;28;21241;-80
2023/05/01 03:12:10;;;;;;;16.07;15.17;;;12.50;1.00;;;;;;4938410;28;21030;-80
2023/05/01 03:14:38;;;;;;;15.10;14.30;;;12.50;1.00;;;;;;4937486;28;20478;-80
2023/05/01 03:17:06;;;;;;;15.37;14.57;;;12.60;1.00;;;;;;4940041;28;20480;-80
2023/05/01 03:19:36;;;;;;;15.77;14.83;;;12.60;1.00;;;;;;4938263;29;20467;-80
2023/05/01 03:22:04;;;;;;;15.83;14.93;;;12.60;1.00;;;;;;4938458;29;22338;-80
2023/05/01 03:24:33;;;;;;;15.20;14.40;;;12.60;1.00;;;;;;4940144;28;20837;-80
2023/05/01 03:27:02;;;;;;;16.47;15.57;;;12.60;1.00;;;;;;4939360;28;20557;-79
2023/05/01 03:29:30;;;;;;;15.80;15.00;;;12.60;1.00;;;;;;4937542;28;20494;-80
2023/05/01 03:31:58;;;;;;;15.43;14.53;;;12.60;1.00;;;;;;4941900;29;20988;-80
2023/05/01 03:34:27;;;;;;;15.80;15.10;;;12.70;1.00;;;;;;4940410;29;20459;-80
2023/05/01 03:36:55;;;;;;;14.90;14.20;;;12.60;1.00;;;;;;4936001;28;21115;-79
2023/05/01 03:39:24;;;;;;;16.27;15.47;;;12.60;1.00;;;;;;4939432;28;21169;-81
2023/05/01 03:41:53;;;;;;;16.50;15.70;;;12.60;1.00;;;;;;4939543;29;20469;-79
2023/05/01 03:44:21;;;;;;;15.00;14.30;;;12.60;1.00;;;;;;4940422;28;20468;-79
2023/05/01 03:46:49;;;;;;;16.00;15.20;;;12.70;1.00;;;;;;4934016;28;20485;-80
2023/05/01 03:49:18;;;;;;;16.17;15.10;;;12.60;1.00;;;;;;4937209;28;20488;-79
2023/05/01 03:51:46;;;;;;;15.53;14.63;;;12.70;1.00;;;;;;4939010;28;20483;-79
2023/05/01 03:54:14;;;;;;;15.50;14.80;;;12.60;1.00;;;;;;4935131;29;20515;-79
2023/05/01 03:56:42;;;;;;;15.43;14.53;;;12.60;1.00;;;;;;4936892;28;20564;-79
2023/05/01 03:59:12;;;;;;;14.63;13.80;;;12.60;6.00;;;;;;4935779;29;20484;-79
2023/05/01 04:01:40;;;;;;;14.73;13.93;;;12.60;1.00;;;;;;4934476;28;20464;-79
2023/05/01 04:04:08;;;;;;;15.30;14.40;;;12.60;1.00;;;;;;4941750;28;20457;-79
2023/05/01 04:06:36;;;;;;;15.50;14.57;;;12.60;1.00;;;;;;4937965;28;20480;-80
2023/05/01 04:09:05;;;;;;;14.73;14.03;;;12.60;1.00;;;;;;4935590;28;20500;-78
2023/05/01 04:11:33;;;;;;;15.90;15.10;;;12.60;2.50;;;;;;4936705;28;20460;-79
2023/05/01 04:14:01;;;;;;;17.37;16.37;;;12.60;12.70;;;;;;4937682;28;20888;-79
2023/05/01 04:16:31;;;;;;;16.60;15.70;;;12.60;25.20;;;;;;4939575;28;21005;-80
2023/05/01 04:18:59;;;;;;;16.03;15.23;;;12.50;9.40;;;;;;4933456;28;20476;-79
2023/05/01 04:21:27;;;;;;;18.00;16.90;;;12.50;1.00;;;;;;4940412;28;20966;-78
2023/05/01 04:23:55;;;;;;;17.53;16.50;;;12.50;16.60;;;;;;4939517;28;20553;-79
2023/05/01 04:26:23;;;;;;;16.17;15.27;;;12.60;92.60;;;;;;4938215;29;21589;-79
2023/05/01 04:28:52;;;;;;;17.10;16.30;;;12.60;14.90;;;;;;4937620;29;20487;-80
2023/05/01 04:31:20;;;;;;;17.57;16.40;;;12.70;1.00;;;;;;4936341;28;20960;-79
2023/05/01 04:33:49;;;;;;;16.50;15.63;;;12.70;7.60;;;;;;4938505;28;20463;-79
2023/05/01 04:36:18;;;;;;;17.70;16.70;;;12.60;1.00;;;;;;4936722;28;20460;-80
2023/05/01 04:38:46;;;;;;;17.77;16.80;;;12.70;1.00;;;;;;4937934;28;20491;-79
2023/05/01 04:41:15;;;;;;;17.47;16.47;;;12.60;1.00;;;;;;4938197;28;21151;-80
2023/05/01 04:43:43;;;;;;;16.70;15.90;;;12.70;1.00;;;;;;4939711;28;20518;-80
2023/05/01 04:46:11;;;;;;;16.83;15.97;;;12.70;1.00;;;;;;4940488;28;20486;-79
2023/05/01 04:48:39;;;;;;;17.27;16.43;;;12.70;2.50;;;;;;4936679;28;20551;-79
2023/05/01 04:51:09;;;;;;;17.00;16.10;;;12.70;28.80;;;;;;4937616;28;20465;-79
2023/05/01 04:53:37;;;;;;;16.07;15.27;;;12.70;50.70;;;;;;4938916;28;20494;-79
2023/05/01 04:56:05;;;;;;;17.23;16.33;;;12.70;30.20;;;;;;4936291;28;20990;-80
2023/05/01 04:58:34;;;;;;;17.57;16.57;;;12.70;22.40;;;;;;4937858;28;20487;-79
2023/05/01 05:01:02;;;;;;;15.97;15.17;;;12.70;99.90;;;;;;4937490;28;20482;-79
2023/05/01 05:03:30;;;;;;;17.17;16.30;;;12.70;99.90;;;;;;4937528;28;20460;-79
2023/05/01 05:05:58;;;;;;;17.30;16.30;;;12.70;99.90;;;;;;4934635;28;21049;-78
2023/05/01 05:08:28;;;;;;;17.53;16.63;;;12.70;99.90;;;;;;4941052;28;20594;-79
2023/05/01 05:10:59;;;;;;;16.90;16.00;;;12.70;99.90;;;;;;4935225;28;20551;-79
2023/05/01 05:13:28;;;;;;;17.33;16.43;;;12.70;99.90;;;;;;4935741;28;20492;-79
2023/05/01 05:15:56;;;;;;;17.50;16.30;;;12.70;99.90;;;;;;4937493;28;21204;-79
2023/05/01 05:18:24;;;;;;;16.13;15.43;;;12.70;99.90;;;;;;4937385;28;20495;-79
2023/05/01 05:20:52;;;;;;;16.57;15.57;;;12.70;99.90;;;;;;4936499;28;20456;-78
2023/05/01 05:23:21;;;;;;;16.70;15.80;;;12.80;99.90;;;;;;4938194;28;20460;-79
2023/05/01 05:25:50;;;;;;;16.87;15.97;;;12.80;99.90;;;;;;4937395;28;20460;-79
2023/05/01 05:28:18;;;;;;;18.07;17.10;;;12.80;99.90;;;;;;4939067;28;20479;-79
2023/05/01 05:30:46;;;;;;;17.33;16.43;;;12.80;99.90;;;;;;4936073;28;20491;-80
2023/05/01 05:33:15;;;;;;;16.47;15.67;;;12.80;99.90;;;;;;4935875;28;20551;-80
2023/05/01 05:35:43;;;;;;;16.90;16.10;;;12.80;99.90;;;;;;4935097;28;20467;-80
2023/05/01 05:38:11;;;;;;;17.47;16.30;;;12.70;1.00;;;;;;4937152;28;20468;-79
2023/05/01 05:40:39;;;;;;;17.33;16.53;;;12.70;99.90;;;;;;4935793;29;20777;-79
2023/05/01 05:43:09;;;;;;;16.90;15.90;;;12.70;99.90;;;;;;4938200;28;20474;-81
2023/05/01 05:45:37;;;;;;;17.00;16.00;;;12.80;99.90;;;;;;4942522;28;20460;-78
2023/05/01 05:48:06;;;;;;;16.67;15.77;;;12.80;1.00;;;;;;4938580;28;20514;-78
2023/05/01 05:50:34;;;;;;;18.33;17.33;;;12.80;1.00;;;;;;4938850;29;20520;-78
2023/05/01 05:53:02;;;;;;;16.90;16.10;;;12.90;1.00;;;;;;4936730;28;20506;-81
2023/05/01 05:55:30;;;;;;;17.57;16.57;;;12.80;1.00;;;;;;4939228;28;20526;-79
2023/05/01 05:57:58;;;;;;;16.87;16.00;;;12.80;97.40;;;;;;4936305;28;20510;-78
2023/05/01 06:00:28;;;;;;;17.90;16.90;;;12.90;1.00;;;;;;4935720;29;20468;-79
2023/05/01 06:02:57;;;;;;;17.03;16.20;;;12.80;99.90;;;;;;4934789;29;20527;-79
2023/05/01 06:05:25;;;;;;;17.27;16.43;;;12.90;1.00;;;;;;4939167;28;20478;-78
2023/05/01 06:07:54;;;;;;;16.80;16.07;;;12.90;1.00;;;;;;4938806;28;20491;-80
2023/05/01 06:10:22;;;;;;;18.33;17.20;;;12.90;99.90;;;;;;4940267;28;20519;-78
2023/05/01 06:12:50;;;;;;;17.70;16.80;;;12.90;99.90;;;;;;4940275;28;20976;-78
2023/05/01 06:15:41;;;;;;;18.10;17.20;;;13.00;1.00;;;;;;4936474;28;20500;-78
2023/05/01 06:18:10;;;;;;;16.63;15.87;;;13.00;99.90;;;;;;4936151;28;20553;-79
2023/05/01 06:20:38;;;;;;;16.77;15.97;;;13.10;1.00;;;;;;4942748;28;20551;-79
2023/05/01 06:23:08;;;;;;;16.70;15.90;;;13.10;1.00;;;;;;4939154;28;20833;-78
2023/05/01 06:25:37;;;;;;;16.93;16.13;;;13.10;1.00;;;;;;4942042;28;20507;-78
2023/05/01 06:28:05;;;;;;;16.47;15.77;;;13.00;1.00;;;;;;4940140;29;20599;-79
2023/05/01 06:30:33;;;;;;;17.80;16.90;;;13.00;1.00;;;;;;4935541;28;20531;-79
2023/05/01 06:33:03;;;;;;;16.13;15.43;;;13.00;1.00;;;;;;4939914;28;20839;-78
2023/05/01 06:35:31;;;;;;;17.07;16.10;;;13.10;1.00;;;;;;4939784;28;20472;-78
2023/05/01 06:37:59;;;;;;;17.30;16.50;;;13.00;1.00;;;;;;4939485;28;20882;-78
2023/05/01 06:40:30;;;;;;;17.60;16.70;;;13.10;1.00;;;;;;4938757;28;20463;-78
2023/05/01 06:42:58;;;;;;;16.40;15.80;;;13.10;1.00;;;;;;4939751;28;21204;-77
2023/05/01 06:45:26;;;;;;;16.30;15.70;;;13.10;1.00;;;;;;4940423;28;20460;-78
2023/05/01 06:47:55;;;;;;;16.97;16.13;;;13.20;1.00;;;;;;4942407;28;20476;-79
2023/05/01 06:50:24;;;;;;;16.80;16.00;;;13.20;1.00;;;;;;4942363;28;20879;-78
2023/05/01 06:52:52;;;;;;;15.90;15.27;;;13.20;1.00;;;;;;4938739;28;20617;-79
2023/05/01 06:55:21;;;;;;;16.23;15.43;;;13.10;1.00;;;;;;4945679;28;20456;-78
2023/05/01 06:57:50;;;;;;;15.13;14.47;;;13.10;1.00;;;;;;4936024;28;20455;-78
2023/05/01 07:00:19;;;;;;;16.90;16.10;;;13.10;1.00;;;;;;4940982;28;20488;-78
2023/05/01 07:02:47;;;;;;;17.60;16.80;;;13.20;1.00;;;;;;4941082;28;20452;-78
2023/05/01 07:05:16;;;;;;;17.30;16.50;;;13.30;2.00;;;;;;4940379;28;20452;-78
2023/05/01 07:07:45;;;;;;;16.70;16.03;;;13.40;1.00;;;;;;4942317;28;20519;-80
2023/05/01 07:10:29;;;;;;;17.77;16.60;;;13.40;1.00;;;;;;4942623;28;20989;-79
2023/05/01 07:12:57;;;;;;;18.30;17.20;;;13.40;1.00;;;;;;4942385;28;20457;-79
2023/05/01 07:15:25;;;;;;;18.43;17.53;;;13.40;99.90;;;;;;4940309;28;20480;-78
2023/05/01 07:17:55;;;;;;;20.93;19.43;;;13.40;99.90;;;;;;4941285;28;20556;-79
2023/05/01 07:20:23;;;;;;;17.50;16.70;;;13.40;2.60;;;;;;4942017;28;20442;-78
2023/05/01 07:22:53;;;;;;;17.93;17.00;;;13.40;1.00;;;;;;4940543;28;20453;-79
2023/05/01 07:25:22;;;;;;;17.83;16.83;;;13.50;37.60;;;;;;4943212;28;20456;-79
2023/05/01 07:27:50;;;;;;;17.37;16.47;;;13.50;1.00;;;;;;4941007;28;21071;-79
2023/05/01 07:30:19;;;;;;;16.50;15.63;;;13.50;1.00;;;;;;4938431;28;20865;-79
2023/05/01 07:32:47;;;;;;;16.20;15.50;;;13.60;1.00;;;;;;4938898;28;20457;-78
2023/05/01 07:35:15;;;;;;;17.80;16.80;;;13.60;1.00;;;;;;4943721;28;20451;-78
2023/05/01 07:37:44;;;;;;;17.47;16.50;;;13.60;1.00;;;;;;4940715;28;20511;-79
2023/05/01 07:40:13;;;;;;;17.13;16.37;;;13.60;1.00;;;;;;4938862;28;20503;-79
2023/05/01 07:42:41;;;;;;;19.13;18.17;;;13.70;99.90;;;;;;4940673;29;20474;-79
2023/05/01 07:45:11;;;;;;;18.17;17.27;;;13.70;39.70;;;;;;4937752;28;20453;-79
2023/05/01 07:47:39;;;;;;;22.00;20.50;;;13.70;1.00;;;;;;4937969;29;20914;-79
2023/05/01 07:50:10;;;;;;;17.40;16.50;;;13.80;4.10;;;;;;4941918;28;20549;-79
2023/05/01 07:52:39;;;;;;;18.13;17.30;;;13.70;1.00;;;;;;4941201;28;20456;-80
2023/05/01 07:55:09;;;;;;;17.50;16.70;;;13.70;1.00;;;;;;4934723;28;20456;-79
2023/05/01 07:57:39;;;;;;;17.60;16.80;;;13.80;1.00;;;;;;4939617;28;20500;-79
2023/05/01 08:00:08;;;;;;;16.90;16.20;;;13.80;1.00;;;;;;4940890;28;20491;-79
2023/05/01 08:02:36;;;;;;;17.37;16.67;;;13.70;1.00;;;;;;4939577;28;20491;-78
2023/05/01 08:05:05;;;;;;;17.10;16.30;;;13.80;1.00;;;;;;4940328;28;20891;-80
2023/05/01 08:07:34;;;;;;;18.90;18.00;;;13.90;1.00;;;;;;4939633;28;21176;-78
2023/05/01 08:10:04;;;;;;;17.43;16.63;;;13.90;1.00;;;;;;4937707;28;20886;-78
2023/05/01 08:12:32;;;;;;;17.90;17.20;;;13.90;1.00;;;;;;4941800;28;20495;-79
2023/05/01 08:15:02;;;;;;;18.53;17.47;;;13.90;1.00;;;;;;4941927;28;20461;-79
2023/05/01 08:17:30;;;;;;;17.40;16.70;;;14.00;30.00;;;;;;4939800;28;20461;-79
2023/05/01 08:20:00;;;;;;;18.17;17.27;;;14.10;10.80;;;;;;4940096;28;21034;-79
2023/05/01 08:22:28;;;;;;;17.27;16.53;;;14.20;20.10;;;;;;4939436;28;20540;-78
2023/05/01 08:24:56;;;;;;;18.03;17.27;;;14.30;1.00;;;;;;4940897;29;21012;-79
2023/05/01 08:27:24;;;;;;;18.47;17.67;;;14.40;1.00;;;;;;4935278;28;20544;-78
2023/05/01 08:29:52;;;;;;;18.10;17.33;;;14.40;4.40;;;;;;4940293;28;20497;-77
2023/05/01 08:32:23;;;;;;;18.67;17.87;;;14.50;1.00;;;;;;4939074;28;20463;-78
2023/05/01 08:34:51;;;;;;;18.00;17.20;;;14.50;1.00;;;;;;4938346;29;20466;-77
2023/05/01 08:37:19;;;;;;;18.63;17.83;;;14.50;1.00;;;;;;4939905;28;20450;-78
2023/05/01 08:39:47;;;;;;;18.00;17.20;;;14.60;1.00;;;;;;4939910;28;20493;-78
2023/05/01 08:42:16;;;;;;;17.23;16.47;;;14.70;1.00;;;;;;4939187;28;20989;-79
2023/05/01 08:44:47;;;;;;;17.57;16.87;;;14.80;1.00;;;;;;4940124;28;20450;-79
2023/05/01 08:47:17;;;;;;;17.87;17.17;;;14.90;1.00;;;;;;4940470;28;20481;-79
2023/05/01 08:49:50;;;;;;;18.03;17.23;;;15.00;1.00;;;;;;4940944;28;20485;-79
2023/05/01 08:52:22;;;;;;;17.90;17.10;;;14.90;1.00;;;;;;4939610;28;21001;-79
2023/05/01 08:54:53;;;;;;;19.20;18.10;;;14.90;1.00;;;;;;4939751;28;20453;-79
2023/05/01 08:57:21;;;;;;;17.37;16.67;;;14.80;1.00;;;;;;4937048;28;20553;-79
2023/05/01 08:59:52;;;;;;;17.43;16.73;;;14.80;1.00;;;;;;4939330;28;20536;-78
2023/05/01 09:02:23;;;;;;;17.83;16.83;;;14.90;1.00;;;;;;4940786;28;20463;-79
2023/05/01 09:04:54;;;;;;;17.20;16.33;;;14.80;1.00;;;;;;4941446;28;20981;-79
2023/05/01 09:07:22;;;;;;;17.17;16.37;;;14.80;1.00;;;;;;4941229;28;20451;-79
2023/05/01 09:09:51;;;;;;;17.30;16.60;;;14.90;1.00;;;;;;4939292;28;20504;-78
2023/05/01 09:12:24;;;;;;;17.47;16.77;;;15.00;1.00;;;;;;4941086;28;20535;-78
2023/05/01 09:14:55;;;;;;;18.03;17.13;;;15.00;1.00;;;;;;4939509;29;20521;-79
2023/05/01 09:17:25;;;;;;;17.90;17.10;;;15.00;99.90;;;;;;4939581;28;21130;-78
2023/05/01 09:19:55;;;;;;;17.27;16.57;;;15.20;99.90;;;;;;4938773;28;20560;-79
2023/05/01 09:22:24;;;;;;;18.63;17.73;;;15.40;99.90;;;;;;4938126;28;20481;-78
2023/05/01 09:24:53;;;;;;;18.43;17.53;;;15.50;99.90;;;;;;4939522;28;20459;-79
2023/05/01 09:27:21;;;;;;;18.60;17.40;;;15.50;99.90;;;;;;4939065;29;20526;-79
2023/05/01 09:29:49;;;;;;;18.17;17.40;;;15.70;99.90;;;;;;4941216;28;20527;-78
2023/05/01 09:32:19;;;;;;;16.90;16.17;;;15.70;99.90;;;;;;4942258;28;20551;-78
2023/05/01 09:34:49;;;;;;;16.97;16.30;;;15.70;99.90;;;;;;4939765;28;20467;-78
2023/05/01 09:37:27;;;;;;;18.07;17.20;;;15.70;99.90;;;;;;4936810;28;21183;-78
2023/05/01 09:40:03;;;;;;;17.20;16.50;;;15.70;99.90;;;;;;4940891;28;20491;-78
2023/05/01 09:42:32;;;;;;;19.03;17.87;;;15.70;99.90;;;;;;4940276;28;20525;-79
2023/05/01 09:45:02;;;;;;;17.20;16.40;;;15.70;99.90;;;;;;4937408;28;21226;-79
2023/05/01 09:47:32;;;;;;;17.10;16.30;;;15.80;99.90;;;;;;4934946;28;20545;-79
2023/05/01 09:50:01;;;;;;;19.37;18.23;;;15.90;99.90;;;;;;4938800;28;20563;-78
2023/05/01 09:52:32;;;;;;;17.20;16.50;;;16.00;99.90;;;;;;4938261;28;20455;-79
2023/05/01 09:55:14;;;;;;;16.80;16.00;;;16.00;99.90;;;;;;4939888;28;20529;-78
2023/05/01 09:57:44;;;;;;;16.07;15.40;;;16.00;99.90;;;;;;4944534;28;20463;-79
2023/05/01 10:00:14;;;;;;;17.90;17.00;;;16.00;99.90;;;;;;4942266;28;20483;-79
2023/05/01 10:02:44;;;;;;;16.10;15.50;;;16.10;99.90;;;;;;4942129;28;20455;-79
2023/05/01 10:05:13;;;;;;;16.10;15.50;;;16.10;99.90;;;;;;4942569;28;20473;-78
2023/05/01 10:07:58;;;;;;;15.70;15.00;;;16.10;99.90;;;;;;4945101;28;20471;-78
2023/05/01 10:10:27;;;;;;;16.13;15.43;;;16.10;99.90;;;;;;4941390;28;20494;-78
2023/05/01 10:12:55;;;;;;;15.50;14.90;;;16.20;99.90;;;;;;4941428;28;20468;-79
2023/05/01 10:15:35;;;;;;;15.97;15.37;;;16.30;99.90;;;;;;4942906;28;20448;-79
2023/05/01 10:18:04;;;;;;;17.03;16.03;;;16.30;99.90;;;;;;4941166;29;20460;-79
2023/05/01 10:20:32;;;;;;;16.47;15.87;;;16.40;99.90;;;;;;4942781;29;20496;-79
2023/05/01 10:23:03;;;;;;;17.53;16.73;;;16.30;99.90;;;;;;4940183;29;20992;-80
2023/05/01 10:25:32;;;;;;;16.00;15.30;;;16.30;99.90;;;;;;4943354;28;20460;-78
2023/05/01 10:28:03;;;;;;;32.53;30.03;;;16.50;99.90;;;;;;4942842;28;20471;-78
2023/05/01 10:30:32;;;;;;;22.37;20.83;;;16.40;99.90;;;;;;4944894;28;20475;-79
2023/05/01 10:33:02;;;;;;;16.10;15.50;;;16.50;99.90;;;;;;4941473;28;20947;-79
2023/05/01 10:35:34;;;;;;;16.30;15.60;;;16.50;99.90;;;;;;4940371;28;20529;-79
2023/05/01 10:38:06;;;;;;;16.23;15.43;;;16.50;99.90;;;;;;4944026;29;20581;-78
2023/05/01 10:40:50;;;;;;;15.70;15.03;;;16.40;99.90;;;;;;4942636;28;20453;-78
2023/05/01 10:43:24;;;;;;;17.10;16.30;;;16.40;99.90;;;;;;4941409;28;20514;-79
2023/05/01 10:45:53;;;;;;;16.67;15.87;;;16.40;99.90;;;;;;4936915;28;20464;-79
2023/05/01 10:48:57;;;;;;;16.23;15.63;;;16.40;99.90;;;;;;4941028;28;20538;-79
2023/05/01 10:51:26;;;;;;;16.27;15.57;;;16.30;99.90;;;;;;4941496;28;20523;-78
2023/05/01 10:54:25;;;;;;;15.97;15.27;;;16.30;99.90;;;;;;4942925;28;20463;-79
2023/05/01 10:56:55;;;;;;;16.20;15.60;;;16.30;99.90;;;;;;4941884;28;20543;-78
2023/05/01 10:59:25;;;;;;;16.43;15.83;;;16.30;99.90;;;;;;4946854;28;20479;-78
2023/05/01 11:01:54;;;;;;;15.60;15.00;;;16.30;99.90;;;;;;4941324;28;20805;-78
2023/05/01 11:04:52;;;;;;;18.77;17.87;;;16.30;99.90;;;;;;4940710;28;20470;-79
2023/05/01 11:07:22;;;;;;;16.73;15.93;;;16.20;99.90;;;;;;4941969;28;20465;-78
2023/05/01 11:09:56;;;;;;;17.10;16.30;;;16.20;99.90;;;;;;4940954;28;20578;-79
2023/05/01 11:12:54;;;;;;;16.17;15.57;;;16.20;99.90;;;;;;4944452;28;21072;-78
2023/05/01 11:15:27;;;;;;;17.40;16.60;;;16.10;99.90;;;;;;4882369;29;21058;-79
2023/05/01 11:17:55;;;;;;;17.30;16.60;;;16.10;99.90;;;;;;4931147;28;20483;-78
2023/05/01 11:20:54;;;;;;;16.90;16.20;;;16.00;99.90;;;;;;4943717;28;20549;-78
2023/05/01 11:23:24;;;;;;;16.77;16.00;;;16.00;99.90;;;;;;4883467;29;20481;-79
2023/05/01 11:26:06;;;;;;;17.00;16.20;;;16.10;99.90;;;;;;4927062;28;20471;-79
2023/05/01 11:28:38;;;;;;;24.20;21.73;;;16.00;99.90;;;;;;4941305;28;20556;-79
2023/05/01 11:31:06;;;;;;;17.17;16.37;;;16.00;99.90;;;;;;4940731;28;20548;-78
2023/05/01 11:33:34;;;;;;;17.13;16.30;;;15.90;99.90;;;;;;4940317;28;20451;-78
2023/05/01 11:36:03;;;;;;;19.00;18.00;;;16.00;99.90;;;;;;4943426;28;20471;-78
2023/05/01 11:38:31;;;;;;;17.73;17.00;;;16.00;99.90;;;;;;4941427;28;20489;-78
2023/05/01 11:41:04;;;;;;;18.63;17.83;;;16.00;99.90;;;;;;4941637;28;20466;-78
2023/05/01 11:43:32;;;;;;;20.00;18.50;;;15.90;1.00;;;;;;4939909;28;20490;-78
2023/05/01 11:46:03;;;;;;;19.57;18.70;;;15.90;1.00;;;;;;4937385;28;20464;-78
2023/05/01 11:48:31;;;;;;;19.50;18.50;;;15.90;1.00;;;;;;4941395;28;20483;-79
2023/05/01 11:51:00;;;;;;;17.80;17.00;;;15.90;1.00;;;;;;4939871;28;20491;-79
2023/05/01 11:53:28;;;;;;;17.43;16.83;;;15.90;1.00;;;;;;4940031;28;20455;-79
2023/05/01 11:55:58;;;;;;;18.13;17.33;;;15.90;1.00;;;;;;4939265;28;20546;-79
2023/05/01 11:58:37;;;;;;;19.20;18.27;;;15.90;1.00;;;;;;4943207;28;20469;-79
2023/05/01 12:01:06;;;;;;;18.90;18.00;;;15.80;1.00;;;;;;4939553;28;20455;-79
2023/05/01 12:03:42;;;;;;;18.60;17.77;;;15.80;1.00;;;;;;4940020;28;20478;-79
2023/05/01 12:06:12;;;;;;;19.03;18.13;;;15.80;99.90;;;;;;4941097;29;20448;-78
2023/05/01 12:08:49;;;;;;;18.97;18.17;;;15.80;58.90;;;;;;4942158;28;20466;-78
2023/05/01 12:11:19;;;;;;;19.13;18.23;;;15.80;99.90;;;;;;4941119;28;20527;-78
2023/05/01 12:13:49;;;;;;;18.80;18.00;;;15.90;1.00;;;;;;4938196;28;20472;-78
2023/05/01 12:16:17;;;;;;;17.27;16.57;;;15.90;1.00;;;;;;4933145;28;20461;-78
2023/05/01 12:18:47;;;;;;;17.37;16.67;;;16.00;36.60;;;;;;4942729;28;20518;-81
2023/05/01 12:21:18;;;;;;;17.50;16.67;;;15.90;1.00;;;;;;4938358;28;20462;-78
2023/05/01 12:23:47;;;;;;;17.30;16.60;;;15.90;1.00;;;;;;4936169;28;20916;-79
2023/05/01 12:26:20;;;;;;;17.70;16.90;;;15.90;1.00;;;;;;4939439;28;20458;-80
2023/05/01 12:29:01;;;;;;;17.53;16.73;;;15.90;1.00;;;;;;4931784;28;20493;-78
2023/05/01 12:31:30;;;;;;;17.47;16.77;;;15.90;1.00;;;;;;4938303;28;20482;-79
2023/05/01 12:34:00;;;;;;;17.43;16.50;;;15.90;1.00;;;;;;4935159;28;20462;-78
2023/05/01 12:36:31;;;;;;;18.67;17.77;;;15.90;1.00;;;;;;4930012;28;20515;-83
2023/05/01 12:39:01;;;;;;;17.53;16.83;;;16.00;1.00;;;;;;4933916;28;20490;-79
2023/05/01 12:41:34;;;;;;;17.70;16.97;;;16.00;1.00;;;;;;4933596;28;20451;-80
2023/05/01 12:44:15;;;;;;;17.70;17.00;;;15.90;99.90;;;;;;4940663;28;20452;-83
2023/05/01 12:46:46;;;;;;;18.87;18.07;;;15.90;99.90;;;;;;4937023;28;20454;-87
2023/05/01 12:49:18;;;;;;;19.13;18.07;;;15.90;99.90;;;;;;4938203;28;20500;-80
2023/05/01 12:51:48;;;;;;;20.70;19.60;;;15.80;1.00;;;;;;4934119;28;21037;-81